sensor_id;sensor_type;location;lat;lon;timestamp;temperature;humidity
6758;DHT22;3416;53.074;8.822;2022-09-09T00:02:01;15.80;99.90
6758;DHT22;3416;53.074;8.822;2022-09-09T00:04:32;15.80;99.90
6758;DHT22;3416;53.074;8.822;2022-09-09T00:07:04;15.80;99.90
6758;DHT22;3416;53.074;8.822;2022-09-09T00:09:35;15.80;99.90
6758;DHT22;3416;53.074;8.822;2022-09-09T00:12:11;15.90;99.90
6758;DHT22;3416;53.074;8.822;2022-09-09T00:14:46;15.90;99.90
6758;DHT22;3416;53.074;8.822;2022-09-09T00:17:21;15.80;99.90
6758;DHT22;3416;53.074;8.822;2022-09-09T00:19:59;15.80;99.90
6758;DHT22;3416;53.074;8.822;2022-09-09T00:22:30;15.80;99.90
6758;DHT22;3416;53.074;8.822;2022-09-09T00:25:03;15.80;99.90
6758;DHT22;3416;53.074;8.822;2022-09-09T00:27:41;15.80;99.90
6758;DHT22;3416;53.074;8.822;2022-09-09T00:30:16;15.80;99.90
6758;DHT22;3416;53.074;8.822;2022-09-09T00:32:45;15.90;99.90
6758;DHT22;3416;53.074;8.822;2022-09-09T00:35:18;15.80;99.90
6758;DHT22;3416;53.074;8.822;2022-09-09T00:37:48;15.80;99.90
6758;DHT22;3416;53.074;8.822;2022-09-09T00:40:23;15.80;99.90
6758;DHT22;3416;53.074;8.822;2022-09-09T00:43:00;15.70;99.90
6758;DHT22;3416;53.074;8.822;2022-09-09T00:45:52;15.80;99.90
6758;DHT22;3416;53.074;8.822;2022-09-09T00:48:24;15.70;99.90
6758;DHT22;3416;53.074;8.822;2022-09-09T00:50:57;15.70;99.90
6758;DHT22;3416;53.074;8.822;2022-09-09T00:53:33;15.80;99.90
6758;DHT22;3416;53.074;8.822;2022-09-09T00:56:12;15.70;99.90
6758;DHT22;3416;53.074;8.822;2022-09-09T00:58:42;15.70;99.90
6758;DHT22;3416;53.074;8.822;2022-09-09T01:01:11;15.80;99.90
6758;DHT22;3416;53.074;8.822;2022-09-09T01:03:42;15.70;99.90
6758;DHT22;3416;53.074;8.822;2022-09-09T01:06:21;15.70;99.90
6758;DHT22;3416;53.074;8.822;2022-09-09T01:09:01;15.60;99.90
6758;DHT22;3416;53.074;8.822;2022-09-09T01:11:36;15.60;99.90
6758;DHT22;3416;53.074;8.822;2022-09-09T01:14:17;15.60;99.90
6758;DHT22;3416;53.074;8.822;2022-09-09T01:16:46;15.50;99.90
6758;DHT22;3416;53.074;8.822;2022-09-09T01:19:20;15.50;99.90
6758;DHT22;3416;53.074;8.822;2022-09-09T01:21:56;15.50;99.90
6758;DHT22;3416;53.074;8.822;2022-09-09T01:24:31;15.50;99.90
6758;DHT22;3416;53.074;8.822;2022-09-09T01:27:06;15.50;99.90
6758;DHT22;3416;53.074;8.822;2022-09-09T01:29:34;15.50;99.90
6758;DHT22;3416;53.074;8.822;2022-09-09T01:32:03;15.50;99.90
6758;DHT22;3416;53.074;8.822;2022-09-09T01:34:51;15.40;99.90
6758;DHT22;3416;53.074;8.822;2022-09-09T01:37:18;15.40;99.90
6758;DHT22;3416;53.074;8.822;2022-09-09T01:39:45;15.40;99.90
6758;DHT22;3416;53.074;8.822;2022-09-09T01:42:16;15.40;99.90
6758;DHT22;3416;53.074;8.822;2022-09-09T01:44:44;15.40;99.90
6758;DHT22;3416;53.074;8.822;2022-09-09T01:47:11;15.40;99.90
6758;DHT22;3416;53.074;8.822;2022-09-09T01:49:38;15.40;99.90
6758;DHT22;3416;53.074;8.822;2022-09-09T01:52:05;15.30;99.90
6758;DHT22;3416;53.074;8.822;2022-09-09T01:54:34;15.30;99.90
6758;DHT22;3416;53.074;8.822;2022-09-09T01:57:08;15.30;99.90
6758;DHT22;3416;53.074;8.822;2022-09-09T01:59:48;15.30;99.90
6758;DHT22;3416;53.074;8.822;2022-09-09T02:02:18;15.40;99.90
6758;DHT22;3416;53.074;8.822;2022-09-09T02:04:48;15.30;99.90
6758;DHT22;3416;53.074;8.822;2022-09-09T02:07:36;15.30;99.90
6758;DHT22;3416;53.074;8.822;2022-09-09T02:10:10;15.30;99.90
6758;DHT22;3416;53.074;8.822;2022-09-09T02:12:40;15.20;99.90
6758;DHT22;3416;53.074;8.822;2022-09-09T02:15:17;15.20;99.90
6758;DHT22;3416;53.074;8.822;2022-09-09T02:17:46;15.10;99.90
6758;DHT22;3416;53.074;8.822;2022-09-09T02:20:14;15.00;99.90
6758;DHT22;3416;53.074;8.822;2022-09-09T02:22:44;15.00;99.90
6758;DHT22;3416;53.074;8.822;2022-09-09T02:25:14;15.00;99.90
6758;DHT22;3416;53.074;8.822;2022-09-09T02:27:44;15.00;99.90
6758;DHT22;3416;53.074;8.822;2022-09-09T02:30:14;14.90;99.90
6758;DHT22;3416;53.074;8.822;2022-09-09T02:32:42;14.90;99.90
6758;DHT22;3416;53.074;8.822;2022-09-09T02:35:13;14.90;99.90
6758;DHT22;3416;53.074;8.822;2022-09-09T02:37:42;15.00;99.90
6758;DHT22;3416;53.074;8.822;2022-09-09T02:40:11;15.00;99.90
6758;DHT22;3416;53.074;8.822;2022-09-09T02:42:39;14.90;99.90
6758;DHT22;3416;53.074;8.822;2022-09-09T02:45:08;14.90;99.90
6758;DHT22;3416;53.074;8.822;2022-09-09T02:47:40;14.90;99.90
6758;DHT22;3416;53.074;8.822;2022-09-09T02:50:13;14.90;99.90
6758;DHT22;3416;53.074;8.822;2022-09-09T02:52:59;14.80;99.90
6758;DHT22;3416;53.074;8.822;2022-09-09T02:55:35;14.90;99.90
6758;DHT22;3416;53.074;8.822;2022-09-09T02:58:05;14.90;99.90
6758;DHT22;3416;53.074;8.822;2022-09-09T03:00:35;14.90;99.90
6758;DHT22;3416;53.074;8.822;2022-09-09T03:03:04;14.90;99.90
6758;DHT22;3416;53.074;8.822;2022-09-09T03:05:32;14.80;99.90
6758;DHT22;3416;53.074;8.822;2022-09-09T03:07:58;14.80;99.90
6758;DHT22;3416;53.074;8.822;2022-09-09T03:10:31;14.80;99.90
6758;DHT22;3416;53.074;8.822;2022-09-09T03:12:58;14.90;99.90
6758;DHT22;3416;53.074;8.822;2022-09-09T03:15:25;14.90;99.90
6758;DHT22;3416;53.074;8.822;2022-09-09T03:17:54;14.80;99.90
6758;DHT22;3416;53.074;8.822;2022-09-09T03:20:24;14.80;99.90
6758;DHT22;3416;53.074;8.822;2022-09-09T03:22:52;14.80;99.90
6758;DHT22;3416;53.074;8.822;2022-09-09T03:25:19;14.90;99.90
6758;DHT22;3416;53.074;8.822;2022-09-09T03:27:49;14.90;99.90
6758;DHT22;3416;53.074;8.822;2022-09-09T03:30:18;14.90;99.90
6758;DHT22;3416;53.074;8.822;2022-09-09T03:32:45;14.90;99.90
6758;DHT22;3416;53.074;8.822;2022-09-09T03:35:12;14.90;99.90
6758;DHT22;3416;53.074;8.822;2022-09-09T03:37:40;15.00;99.90
6758;DHT22;3416;53.074;8.822;2022-09-09T03:40:08;15.00;99.90
6758;DHT22;3416;53.074;8.822;2022-09-09T03:42:36;15.00;99.90
6758;DHT22;3416;53.074;8.822;2022-09-09T03:45:04;15.00;99.90
6758;DHT22;3416;53.074;8.822;2022-09-09T03:47:32;15.00;99.90
6758;DHT22;3416;53.074;8.822;2022-09-09T03:49:59;15.00;99.90
6758;DHT22;3416;53.074;8.822;2022-09-09T03:52:25;15.10;99.90
6758;DHT22;3416;53.074;8.822;2022-09-09T03:54:54;15.10;99.90
6758;DHT22;3416;53.074;8.822;2022-09-09T03:57:22;15.10;99.90
6758;DHT22;3416;53.074;8.822;2022-09-09T03:59:49;15.20;99.90
6758;DHT22;3416;53.074;8.822;2022-09-09T04:02:16;15.20;99.90
6758;DHT22;3416;53.074;8.822;2022-09-09T04:04:43;15.20;99.90
6758;DHT22;3416;53.074;8.822;2022-09-09T04:07:10;15.30;99.90
6758;DHT22;3416;53.074;8.822;2022-09-09T04:09:37;15.30;99.90
6758;DHT22;3416;53.074;8.822;2022-09-09T04:12:06;15.20;99.90
6758;DHT22;3416;53.074;8.822;2022-09-09T04:14:33;15.20;99.90
6758;DHT22;3416;53.074;8.822;2022-09-09T04:17:00;15.20;99.90
6758;DHT22;3416;53.074;8.822;2022-09-09T04:19:29;15.20;99.90
6758;DHT22;3416;53.074;8.822;2022-09-09T04:21:57;15.20;99.90
6758;DHT22;3416;53.074;8.822;2022-09-09T04:24:24;15.30;99.90
6758;DHT22;3416;53.074;8.822;2022-09-09T04:26:54;15.30;99.90
6758;DHT22;3416;53.074;8.822;2022-09-09T04:29:22;15.30;99.90
6758;DHT22;3416;53.074;8.822;2022-09-09T04:31:49;15.40;99.90
6758;DHT22;3416;53.074;8.822;2022-09-09T04:34:16;15.30;99.90
6758;DHT22;3416;53.074;8.822;2022-09-09T04:36:43;15.40;99.90
6758;DHT22;3416;53.074;8.822;2022-09-09T04:39:11;15.40;99.90
6758;DHT22;3416;53.074;8.822;2022-09-09T04:41:38;15.40;99.90
6758;DHT22;3416;53.074;8.822;2022-09-09T04:44:05;15.50;99.90
6758;DHT22;3416;53.074;8.822;2022-09-09T04:46:34;15.50;99.90
6758;DHT22;3416;53.074;8.822;2022-09-09T04:49:01;15.50;99.90
6758;DHT22;3416;53.074;8.822;2022-09-09T04:51:28;15.60;99.90
6758;DHT22;3416;53.074;8.822;2022-09-09T04:53:56;15.60;99.90
6758;DHT22;3416;53.074;8.822;2022-09-09T04:56:23;15.60;99.90
6758;DHT22;3416;53.074;8.822;2022-09-09T04:58:52;15.60;99.90
6758;DHT22;3416;53.074;8.822;2022-09-09T05:01:22;15.70;99.90
6758;DHT22;3416;53.074;8.822;2022-09-09T05:03:51;15.70;99.90
6758;DHT22;3416;53.074;8.822;2022-09-09T05:06:20;15.60;99.90
6758;DHT22;3416;53.074;8.822;2022-09-09T05:08:47;15.60;99.90
6758;DHT22;3416;53.074;8.822;2022-09-09T05:11:16;15.60;99.90
6758;DHT22;3416;53.074;8.822;2022-09-09T05:13:44;15.60;99.90
6758;DHT22;3416;53.074;8.822;2022-09-09T05:16:11;15.60;99.90
6758;DHT22;3416;53.074;8.822;2022-09-09T05:18:38;15.60;99.90
6758;DHT22;3416;53.074;8.822;2022-09-09T05:21:07;15.50;99.90
6758;DHT22;3416;53.074;8.822;2022-09-09T05:23:35;15.50;99.90
6758;DHT22;3416;53.074;8.822;2022-09-09T05:26:03;15.60;99.90
6758;DHT22;3416;53.074;8.822;2022-09-09T05:28:30;15.70;99.90
6758;DHT22;3416;53.074;8.822;2022-09-09T05:30:58;15.70;99.90
6758;DHT22;3416;53.074;8.822;2022-09-09T05:33:26;15.70;99.90
6758;DHT22;3416;53.074;8.822;2022-09-09T05:35:57;15.70;99.90
6758;DHT22;3416;53.074;8.822;2022-09-09T05:38:26;15.70;99.90
6758;DHT22;3416;53.074;8.822;2022-09-09T05:40:53;15.70;99.90
6758;DHT22;3416;53.074;8.822;2022-09-09T05:43:20;15.70;99.90
6758;DHT22;3416;53.074;8.822;2022-09-09T05:45:47;15.70;99.90
6758;DHT22;3416;53.074;8.822;2022-09-09T05:48:14;15.80;99.90
6758;DHT22;3416;53.074;8.822;2022-09-09T05:50:41;15.80;99.90
6758;DHT22;3416;53.074;8.822;2022-09-09T05:53:10;15.90;99.90
6758;DHT22;3416;53.074;8.822;2022-09-09T05:55:38;16.10;99.90
6758;DHT22;3416;53.074;8.822;2022-09-09T05:58:06;16.10;99.90
6758;DHT22;3416;53.074;8.822;2022-09-09T06:00:33;16.20;99.90
6758;DHT22;3416;53.074;8.822;2022-09-09T06:03:00;16.30;99.90
6758;DHT22;3416;53.074;8.822;2022-09-09T06:05:27;16.40;99.90
6758;DHT22;3416;53.074;8.822;2022-09-09T06:07:53;16.80;99.90
6758;DHT22;3416;53.074;8.822;2022-09-09T06:10:21;17.80;99.90
6758;DHT22;3416;53.074;8.822;2022-09-09T06:12:52;18.70;99.90
6758;DHT22;3416;53.074;8.822;2022-09-09T06:15:20;19.60;99.90
6758;DHT22;3416;53.074;8.822;2022-09-09T06:17:47;20.70;99.90
6758;DHT22;3416;53.074;8.822;2022-09-09T06:20:20;21.10;99.90
6758;DHT22;3416;53.074;8.822;2022-09-09T06:22:47;20.80;99.90
6758;DHT22;3416;53.074;8.822;2022-09-09T06:25:14;21.20;99.90
6758;DHT22;3416;53.074;8.822;2022-09-09T06:27:42;21.70;99.90
6758;DHT22;3416;53.074;8.822;2022-09-09T06:30:11;22.40;99.90
6758;DHT22;3416;53.074;8.822;2022-09-09T06:32:39;22.90;99.90
6758;DHT22;3416;53.074;8.822;2022-09-09T06:35:06;24.20;99.90
6758;DHT22;3416;53.074;8.822;2022-09-09T06:37:34;24.80;99.90
6758;DHT22;3416;53.074;8.822;2022-09-09T06:40:04;24.50;99.90
6758;DHT22;3416;53.074;8.822;2022-09-09T06:42:32;24.50;99.90
6758;DHT22;3416;53.074;8.822;2022-09-09T06:44:59;24.10;99.90
6758;DHT22;3416;53.074;8.822;2022-09-09T06:47:29;23.20;99.90
6758;DHT22;3416;53.074;8.822;2022-09-09T06:49:56;22.50;99.90
6758;DHT22;3416;53.074;8.822;2022-09-09T06:52:24;21.80;99.90
6758;DHT22;3416;53.074;8.822;2022-09-09T06:54:51;21.20;99.90
6758;DHT22;3416;53.074;8.822;2022-09-09T06:57:18;21.40;99.90
6758;DHT22;3416;53.074;8.822;2022-09-09T06:59:45;21.80;99.90
6758;DHT22;3416;53.074;8.822;2022-09-09T07:02:12;21.70;99.90
6758;DHT22;3416;53.074;8.822;2022-09-09T07:04:41;22.10;99.90
6758;DHT22;3416;53.074;8.822;2022-09-09T07:07:08;22.40;99.90
6758;DHT22;3416;53.074;8.822;2022-09-09T07:09:37;23.00;99.90
6758;DHT22;3416;53.074;8.822;2022-09-09T07:12:05;23.60;99.90
6758;DHT22;3416;53.074;8.822;2022-09-09T07:14:32;24.20;99.90
6758;DHT22;3416;53.074;8.822;2022-09-09T07:16:59;24.60;99.90
6758;DHT22;3416;53.074;8.822;2022-09-09T07:19:26;25.00;97.80
6758;DHT22;3416;53.074;8.822;2022-09-09T07:21:55;26.30;97.00
6758;DHT22;3416;53.074;8.822;2022-09-09T07:24:22;27.20;93.80
6758;DHT22;3416;53.074;8.822;2022-09-09T07:26:49;27.60;92.50
6758;DHT22;3416;53.074;8.822;2022-09-09T07:29:17;28.10;91.90
6758;DHT22;3416;53.074;8.822;2022-09-09T07:31:44;28.20;89.80
6758;DHT22;3416;53.074;8.822;2022-09-09T07:34:11;28.60;90.50
6758;DHT22;3416;53.074;8.822;2022-09-09T07:36:39;28.60;90.00
6758;DHT22;3416;53.074;8.822;2022-09-09T07:39:10;28.90;88.40
6758;DHT22;3416;53.074;8.822;2022-09-09T07:41:39;28.60;89.50
6758;DHT22;3416;53.074;8.822;2022-09-09T07:44:08;28.80;88.10
6758;DHT22;3416;53.074;8.822;2022-09-09T07:46:36;29.00;88.90
6758;DHT22;3416;53.074;8.822;2022-09-09T07:49:05;28.70;86.70
6758;DHT22;3416;53.074;8.822;2022-09-09T07:51:36;29.30;87.20
6758;DHT22;3416;53.074;8.822;2022-09-09T07:54:06;29.40;85.90
6758;DHT22;3416;53.074;8.822;2022-09-09T07:56:36;29.70;85.70
6758;DHT22;3416;53.074;8.822;2022-09-09T07:59:03;29.90;85.70
6758;DHT22;3416;53.074;8.822;2022-09-09T08:01:33;30.30;84.80
6758;DHT22;3416;53.074;8.822;2022-09-09T08:04:04;30.10;83.90
6758;DHT22;3416;53.074;8.822;2022-09-09T08:06:36;29.10;84.40
6758;DHT22;3416;53.074;8.822;2022-09-09T08:09:04;27.50;89.70
6758;DHT22;3416;53.074;8.822;2022-09-09T08:11:31;27.50;90.50
6758;DHT22;3416;53.074;8.822;2022-09-09T08:13:59;28.10;89.90
6758;DHT22;3416;53.074;8.822;2022-09-09T08:16:28;28.40;88.00
6758;DHT22;3416;53.074;8.822;2022-09-09T08:18:55;28.20;86.20
6758;DHT22;3416;53.074;8.822;2022-09-09T08:21:25;27.30;89.50
6758;DHT22;3416;53.074;8.822;2022-09-09T08:23:54;27.40;90.90
6758;DHT22;3416;53.074;8.822;2022-09-09T08:26:23;27.30;91.00
6758;DHT22;3416;53.074;8.822;2022-09-09T08:28:52;28.10;89.30
6758;DHT22;3416;53.074;8.822;2022-09-09T08:31:28;28.30;88.60
6758;DHT22;3416;53.074;8.822;2022-09-09T08:33:56;28.00;88.80
6758;DHT22;3416;53.074;8.822;2022-09-09T08:36:26;27.40;89.70
6758;DHT22;3416;53.074;8.822;2022-09-09T08:38:55;26.70;91.00
6758;DHT22;3416;53.074;8.822;2022-09-09T08:41:43;25.60;92.50
6758;DHT22;3416;53.074;8.822;2022-09-09T08:44:17;25.30;94.10
6758;DHT22;3416;53.074;8.822;2022-09-09T08:46:56;25.20;95.00
6758;DHT22;3416;53.074;8.822;2022-09-09T08:49:42;25.60;94.60
6758;DHT22;3416;53.074;8.822;2022-09-09T08:52:16;25.50;93.10
6758;DHT22;3416;53.074;8.822;2022-09-09T08:54:44;25.10;94.30
6758;DHT22;3416;53.074;8.822;2022-09-09T08:57:14;24.60;95.90
6758;DHT22;3416;53.074;8.822;2022-09-09T08:59:42;25.00;95.30
6758;DHT22;3416;53.074;8.822;2022-09-09T09:02:16;24.70;96.70
6758;DHT22;3416;53.074;8.822;2022-09-09T09:04:53;24.80;96.30
6758;DHT22;3416;53.074;8.822;2022-09-09T09:07:32;24.90;96.70
6758;DHT22;3416;53.074;8.822;2022-09-09T09:10:04;24.90;95.30
6758;DHT22;3416;53.074;8.822;2022-09-09T09:12:39;24.90;95.70
6758;DHT22;3416;53.074;8.822;2022-09-09T09:15:14;24.70;95.60
6758;DHT22;3416;53.074;8.822;2022-09-09T09:17:44;24.70;95.70
6758;DHT22;3416;53.074;8.822;2022-09-09T09:20:13;24.40;96.10
6758;DHT22;3416;53.074;8.822;2022-09-09T09:22:48;23.80;96.60
6758;DHT22;3416;53.074;8.822;2022-09-09T09:25:18;23.60;97.20
6758;DHT22;3416;53.074;8.822;2022-09-09T09:27:52;23.50;97.90
6758;DHT22;3416;53.074;8.822;2022-09-09T09:30:22;23.60;98.10
6758;DHT22;3416;53.074;8.822;2022-09-09T09:32:53;24.00;97.20
6758;DHT22;3416;53.074;8.822;2022-09-09T09:35:21;24.40;96.40
6758;DHT22;3416;53.074;8.822;2022-09-09T09:37:49;25.00;95.00
6758;DHT22;3416;53.074;8.822;2022-09-09T09:40:18;25.80;93.60
6758;DHT22;3416;53.074;8.822;2022-09-09T09:42:52;26.30;92.20
6758;DHT22;3416;53.074;8.822;2022-09-09T09:45:28;26.90;91.40
6758;DHT22;3416;53.074;8.822;2022-09-09T09:48:03;27.40;90.10
6758;DHT22;3416;53.074;8.822;2022-09-09T09:50:30;26.70;90.60
6758;DHT22;3416;53.074;8.822;2022-09-09T09:53:00;25.80;91.90
6758;DHT22;3416;53.074;8.822;2022-09-09T09:55:30;25.10;93.30
6758;DHT22;3416;53.074;8.822;2022-09-09T09:58:02;24.30;94.80
6758;DHT22;3416;53.074;8.822;2022-09-09T10:00:30;23.50;96.00
6758;DHT22;3416;53.074;8.822;2022-09-09T10:02:57;23.20;98.30
6758;DHT22;3416;53.074;8.822;2022-09-09T10:05:29;23.00;99.00
6758;DHT22;3416;53.074;8.822;2022-09-09T10:08:05;23.00;99.90
6758;DHT22;3416;53.074;8.822;2022-09-09T10:10:57;23.80;99.50
6758;DHT22;3416;53.074;8.822;2022-09-09T10:13:30;24.60;97.80
6758;DHT22;3416;53.074;8.822;2022-09-09T10:16:13;24.60;96.80
6758;DHT22;3416;53.074;8.822;2022-09-09T10:18:56;24.40;97.10
6758;DHT22;3416;53.074;8.822;2022-09-09T10:21:46;24.00;97.70
6758;DHT22;3416;53.074;8.822;2022-09-09T10:24:38;23.60;98.40
6758;DHT22;3416;53.074;8.822;2022-09-09T10:27:14;23.60;98.50
6758;DHT22;3416;53.074;8.822;2022-09-09T10:29:55;24.10;98.10
6758;DHT22;3416;53.074;8.822;2022-09-09T10:32:36;24.20;97.20
6758;DHT22;3416;53.074;8.822;2022-09-09T10:35:10;24.60;95.40
6758;DHT22;3416;53.074;8.822;2022-09-09T10:40:43;23.90;96.90
6758;DHT22;3416;53.074;8.822;2022-09-09T10:43:21;23.80;97.10
6758;DHT22;3416;53.074;8.822;2022-09-09T10:46:01;23.60;97.60
6758;DHT22;3416;53.074;8.822;2022-09-09T10:48:39;23.50;98.20
6758;DHT22;3416;53.074;8.822;2022-09-09T10:51:21;23.30;98.90
6758;DHT22;3416;53.074;8.822;2022-09-09T10:53:58;23.60;98.60
6758;DHT22;3416;53.074;8.822;2022-09-09T10:56:30;23.60;98.40
6758;DHT22;3416;53.074;8.822;2022-09-09T10:59:02;24.00;97.50
6758;DHT22;3416;53.074;8.822;2022-09-09T11:01:36;24.00;96.80
6758;DHT22;3416;53.074;8.822;2022-09-09T11:04:06;24.10;97.00
6758;DHT22;3416;53.074;8.822;2022-09-09T11:06:41;23.90;97.30
6758;DHT22;3416;53.074;8.822;2022-09-09T11:09:16;23.90;96.90
6758;DHT22;3416;53.074;8.822;2022-09-09T11:11:49;23.90;97.00
6758;DHT22;3416;53.074;8.822;2022-09-09T11:14:21;24.10;96.60
6758;DHT22;3416;53.074;8.822;2022-09-09T11:16:52;24.40;96.10
6758;DHT22;3416;53.074;8.822;2022-09-09T11:19:26;24.40;95.60
6758;DHT22;3416;53.074;8.822;2022-09-09T11:21:55;24.10;95.70
6758;DHT22;3416;53.074;8.822;2022-09-09T11:24:28;23.80;95.90
6758;DHT22;3416;53.074;8.822;2022-09-09T11:27:01;23.90;96.10
6758;DHT22;3416;53.074;8.822;2022-09-09T11:32:32;23.40;97.30
6758;DHT22;3416;53.074;8.822;2022-09-09T11:35:12;23.70;97.50
6758;DHT22;3416;53.074;8.822;2022-09-09T11:38:15;23.90;97.00
6758;DHT22;3416;53.074;8.822;2022-09-09T11:40:46;24.00;96.70
6758;DHT22;3416;53.074;8.822;2022-09-09T11:43:15;24.00;96.40
6758;DHT22;3416;53.074;8.822;2022-09-09T11:45:49;23.90;96.40
6758;DHT22;3416;53.074;8.822;2022-09-09T11:48:24;23.70;96.60
6758;DHT22;3416;53.074;8.822;2022-09-09T11:51:00;23.40;97.90
6758;DHT22;3416;53.074;8.822;2022-09-09T11:53:28;23.00;97.90
6758;DHT22;3416;53.074;8.822;2022-09-09T11:56:09;22.90;99.10
6758;DHT22;3416;53.074;8.822;2022-09-09T11:58:40;22.90;99.90
6758;DHT22;3416;53.074;8.822;2022-09-09T12:01:33;22.70;99.90
6758;DHT22;3416;53.074;8.822;2022-09-09T12:06:54;22.40;99.90
6758;DHT22;3416;53.074;8.822;2022-09-09T12:09:28;22.30;99.90
6758;DHT22;3416;53.074;8.822;2022-09-09T12:12:21;22.20;99.90
6758;DHT22;3416;53.074;8.822;2022-09-09T12:17:42;21.70;99.90
6758;DHT22;3416;53.074;8.822;2022-09-09T12:20:14;21.60;99.90
6758;DHT22;3416;53.074;8.822;2022-09-09T12:22:50;21.50;99.90
6758;DHT22;3416;53.074;8.822;2022-09-09T12:25:26;21.20;99.90
6758;DHT22;3416;53.074;8.822;2022-09-09T12:28:02;20.90;99.90
6758;DHT22;3416;53.074;8.822;2022-09-09T12:30:35;20.60;99.90
6758;DHT22;3416;53.074;8.822;2022-09-09T12:33:10;20.40;99.90
6758;DHT22;3416;53.074;8.822;2022-09-09T12:35:38;20.10;99.90
6758;DHT22;3416;53.074;8.822;2022-09-09T12:38:06;19.90;99.90
6758;DHT22;3416;53.074;8.822;2022-09-09T12:40:37;19.90;99.90
6758;DHT22;3416;53.074;8.822;2022-09-09T12:43:17;19.90;99.90
6758;DHT22;3416;53.074;8.822;2022-09-09T12:45:47;19.90;99.90
6758;DHT22;3416;53.074;8.822;2022-09-09T12:48:17;19.90;99.90
6758;DHT22;3416;53.074;8.822;2022-09-09T12:50:47;19.90;99.90
6758;DHT22;3416;53.074;8.822;2022-09-09T12:53:22;19.90;99.90
6758;DHT22;3416;53.074;8.822;2022-09-09T12:55:54;19.70;99.90
6758;DHT22;3416;53.074;8.822;2022-09-09T12:58:24;19.90;99.90
6758;DHT22;3416;53.074;8.822;2022-09-09T13:00:53;20.00;99.90
6758;DHT22;3416;53.074;8.822;2022-09-09T13:03:22;20.00;99.90
6758;DHT22;3416;53.074;8.822;2022-09-09T13:05:51;20.10;99.90
6758;DHT22;3416;53.074;8.822;2022-09-09T13:08:18;20.00;99.90
6758;DHT22;3416;53.074;8.822;2022-09-09T13:10:49;20.00;99.90
6758;DHT22;3416;53.074;8.822;2022-09-09T13:13:23;20.20;99.90
6758;DHT22;3416;53.074;8.822;2022-09-09T13:15:54;20.30;99.90
6758;DHT22;3416;53.074;8.822;2022-09-09T13:18:23;20.30;99.90
6758;DHT22;3416;53.074;8.822;2022-09-09T13:20:51;20.30;99.90
6758;DHT22;3416;53.074;8.822;2022-09-09T13:23:20;20.30;99.90
6758;DHT22;3416;53.074;8.822;2022-09-09T13:25:54;20.30;99.90
6758;DHT22;3416;53.074;8.822;2022-09-09T13:28:24;20.40;99.90
6758;DHT22;3416;53.074;8.822;2022-09-09T13:30:56;20.50;99.90
6758;DHT22;3416;53.074;8.822;2022-09-09T13:33:31;20.60;99.90
6758;DHT22;3416;53.074;8.822;2022-09-09T13:36:00;20.80;99.90
6758;DHT22;3416;53.074;8.822;2022-09-09T13:38:32;20.90;99.90
6758;DHT22;3416;53.074;8.822;2022-09-09T13:41:02;21.00;99.90
6758;DHT22;3416;53.074;8.822;2022-09-09T13:43:34;21.00;99.90
6758;DHT22;3416;53.074;8.822;2022-09-09T13:46:24;21.00;99.90
6758;DHT22;3416;53.074;8.822;2022-09-09T13:48:55;21.00;99.90
6758;DHT22;3416;53.074;8.822;2022-09-09T13:51:30;21.10;99.90
6758;DHT22;3416;53.074;8.822;2022-09-09T13:53:58;21.00;99.90
6758;DHT22;3416;53.074;8.822;2022-09-09T13:56:27;20.90;99.90
6758;DHT22;3416;53.074;8.822;2022-09-09T13:58:55;21.10;99.90
6758;DHT22;3416;53.074;8.822;2022-09-09T14:01:23;21.10;99.90
6758;DHT22;3416;53.074;8.822;2022-09-09T14:03:50;20.90;99.90
6758;DHT22;3416;53.074;8.822;2022-09-09T14:06:18;20.90;99.90
6758;DHT22;3416;53.074;8.822;2022-09-09T14:08:47;20.80;99.90
6758;DHT22;3416;53.074;8.822;2022-09-09T14:11:14;20.80;99.90
6758;DHT22;3416;53.074;8.822;2022-09-09T14:13:41;20.70;99.90
6758;DHT22;3416;53.074;8.822;2022-09-09T14:16:10;20.60;99.90
6758;DHT22;3416;53.074;8.822;2022-09-09T14:18:37;20.50;99.90
6758;DHT22;3416;53.074;8.822;2022-09-09T14:21:04;20.40;99.90
6758;DHT22;3416;53.074;8.822;2022-09-09T14:23:31;20.20;99.90
6758;DHT22;3416;53.074;8.822;2022-09-09T14:25:58;20.00;99.90
6758;DHT22;3416;53.074;8.822;2022-09-09T14:28:27;20.00;99.90
6758;DHT22;3416;53.074;8.822;2022-09-09T14:30:55;19.90;99.90
6758;DHT22;3416;53.074;8.822;2022-09-09T14:33:23;19.70;99.90
6758;DHT22;3416;53.074;8.822;2022-09-09T14:35:56;19.60;99.90
6758;DHT22;3416;53.074;8.822;2022-09-09T14:38:23;19.50;99.90
6758;DHT22;3416;53.074;8.822;2022-09-09T14:40:50;19.50;99.90
6758;DHT22;3416;53.074;8.822;2022-09-09T14:43:17;19.40;99.90
6758;DHT22;3416;53.074;8.822;2022-09-09T14:45:44;19.50;99.90
6758;DHT22;3416;53.074;8.822;2022-09-09T14:48:10;19.40;99.90
6758;DHT22;3416;53.074;8.822;2022-09-09T14:50:40;19.30;99.90
6758;DHT22;3416;53.074;8.822;2022-09-09T14:53:07;19.30;99.90
6758;DHT22;3416;53.074;8.822;2022-09-09T14:55:34;19.30;99.90
6758;DHT22;3416;53.074;8.822;2022-09-09T14:58:01;19.20;99.90
6758;DHT22;3416;53.074;8.822;2022-09-09T15:00:27;19.10;99.90
6758;DHT22;3416;53.074;8.822;2022-09-09T15:02:55;19.00;99.90
6758;DHT22;3416;53.074;8.822;2022-09-09T15:05:22;19.00;99.90
6758;DHT22;3416;53.074;8.822;2022-09-09T15:07:51;18.90;99.90
6758;DHT22;3416;53.074;8.822;2022-09-09T15:10:18;18.80;99.90
6758;DHT22;3416;53.074;8.822;2022-09-09T15:12:44;18.70;99.90
6758;DHT22;3416;53.074;8.822;2022-09-09T15:15:11;18.70;99.90
6758;DHT22;3416;53.074;8.822;2022-09-09T15:17:39;18.70;99.90
6758;DHT22;3416;53.074;8.822;2022-09-09T15:20:07;18.60;99.90
6758;DHT22;3416;53.074;8.822;2022-09-09T15:22:34;18.60;99.90
6758;DHT22;3416;53.074;8.822;2022-09-09T15:25:04;18.50;99.90
6758;DHT22;3416;53.074;8.822;2022-09-09T15:27:31;18.50;99.90
6758;DHT22;3416;53.074;8.822;2022-09-09T15:30:00;18.50;99.90
6758;DHT22;3416;53.074;8.822;2022-09-09T15:32:27;18.50;99.90
6758;DHT22;3416;53.074;8.822;2022-09-09T15:34:54;18.50;99.90
6758;DHT22;3416;53.074;8.822;2022-09-09T15:37:21;18.40;99.90
6758;DHT22;3416;53.074;8.822;2022-09-09T15:39:48;18.40;99.90
6758;DHT22;3416;53.074;8.822;2022-09-09T15:42:16;18.40;99.90
6758;DHT22;3416;53.074;8.822;2022-09-09T15:44:43;18.40;99.90
6758;DHT22;3416;53.074;8.822;2022-09-09T15:47:11;18.40;99.90
6758;DHT22;3416;53.074;8.822;2022-09-09T15:49:40;18.40;99.90
6758;DHT22;3416;53.074;8.822;2022-09-09T15:52:10;18.30;99.90
6758;DHT22;3416;53.074;8.822;2022-09-09T15:54:37;18.30;99.90
6758;DHT22;3416;53.074;8.822;2022-09-09T15:57:07;18.30;99.90
6758;DHT22;3416;53.074;8.822;2022-09-09T15:59:35;18.30;99.90
6758;DHT22;3416;53.074;8.822;2022-09-09T16:02:02;18.30;99.90
6758;DHT22;3416;53.074;8.822;2022-09-09T16:04:30;18.20;99.90
6758;DHT22;3416;53.074;8.822;2022-09-09T16:07:01;18.30;99.90
6758;DHT22;3416;53.074;8.822;2022-09-09T16:09:29;18.30;99.90
6758;DHT22;3416;53.074;8.822;2022-09-09T16:11:57;18.40;99.90
6758;DHT22;3416;53.074;8.822;2022-09-09T16:14:28;18.50;99.90
6758;DHT22;3416;53.074;8.822;2022-09-09T16:17:01;18.50;99.90
6758;DHT22;3416;53.074;8.822;2022-09-09T16:19:27;18.50;99.90
6758;DHT22;3416;53.074;8.822;2022-09-09T16:21:55;18.50;99.90
6758;DHT22;3416;53.074;8.822;2022-09-09T16:24:22;18.50;99.90
6758;DHT22;3416;53.074;8.822;2022-09-09T16:26:52;18.50;99.90
6758;DHT22;3416;53.074;8.822;2022-09-09T16:29:21;18.50;99.90
6758;DHT22;3416;53.074;8.822;2022-09-09T16:31:48;18.50;99.90
6758;DHT22;3416;53.074;8.822;2022-09-09T16:34:17;18.40;99.90
6758;DHT22;3416;53.074;8.822;2022-09-09T16:36:45;18.40;99.90